Time;durP1;ratioP1;P1;durP2;ratioP2;P2;SDS_P1;SDS_P2;PMS_P1;PMS_P2;Temp;Humidity;BMP_temperature;BMP_pressure;BME280_temperature;BME280_humidity;BME280_pressure;Samples;Min_cycle;Max_cycle;Signal;HPM_P1;HPM_P2
2022/03/19 00:01:13;;;;;;;99.13;57.70;;;102.40;2227.20;;;;;;5054509;28;20032;-76
2022/03/19 00:03:40;;;;;;;117.85;69.97;;;102.40;2227.20;;;;;;5048113;28;20094;-76
2022/03/19 00:06:07;;;;;;;116.82;64.82;;;102.40;2227.20;;;;;;5033448;28;20026;-76
2022/03/19 00:08:33;;;;;;;103.20;63.15;;;102.40;2227.20;;;;;;5053444;28;20043;-77
2022/03/19 00:11:00;;;;;;;110.80;61.60;;;77.70;2227.20;;;;;;5040011;28;20494;-76
2022/03/19 00:13:26;;;;;;;115.47;67.00;;;77.60;2227.20;;;;;;5039063;28;20501;-76
2022/03/19 00:15:52;;;;;;;120.30;70.97;;;77.60;2227.20;;;;;;5051763;28;20029;-76
2022/03/19 00:18:18;;;;;;;130.00;66.47;;;77.50;2227.20;;;;;;5050092;28;20060;-76
2022/03/19 00:20:43;;;;;;;116.03;69.65;;;77.50;2227.20;;;;;;5039295;28;20108;-77
2022/03/19 00:23:10;;;;;;;116.07;68.22;;;77.50;2227.20;;;;;;5032782;28;20020;-77
2022/03/19 00:25:35;;;;;;;117.93;66.10;;;77.50;2227.20;;;;;;5035703;28;20059;-76
2022/03/19 00:28:02;;;;;;;130.20;73.97;;;77.40;2227.20;;;;;;5050662;28;20397;-76
2022/03/19 00:30:28;;;;;;;117.15;65.97;;;77.30;2227.20;;;;;;5037758;28;20029;-76
2022/03/19 00:32:53;;;;;;;119.68;69.32;;;77.30;2227.20;;;;;;5053437;28;20395;-76
2022/03/19 00:35:19;;;;;;;105.57;59.72;;;77.20;2227.20;;;;;;5051768;28;20060;-75
2022/03/19 00:37:47;;;;;;;93.25;54.00;;;77.30;2227.20;;;;;;5042722;28;20090;-76
2022/03/19 00:40:14;;;;;;;91.88;54.40;;;77.20;2227.20;;;;;;5045688;28;20124;-76
2022/03/19 00:42:40;;;;;;;90.32;49.92;;;77.30;2227.20;;;;;;5052188;28;20083;-76
2022/03/19 00:45:07;;;;;;;73.88;47.70;;;77.40;2227.20;;;;;;5050140;28;20029;-76
2022/03/19 00:47:32;;;;;;;82.15;47.30;;;77.30;2227.20;;;;;;5044023;28;20029;-76
2022/03/19 00:49:58;;;;;;;79.78;50.92;;;77.30;2227.20;;;;;;5045458;28;20746;-76
2022/03/19 00:52:24;;;;;;;97.00;53.47;;;77.30;2227.20;;;;;;5032527;28;20030;-76
2022/03/19 00:54:50;;;;;;;87.20;50.22;;;77.30;2227.20;;;;;;5037993;28;20086;-76
2022/03/19 00:57:15;;;;;;;91.32;49.05;;;77.40;2227.20;;;;;;5047710;28;20096;-77
2022/03/19 00:59:41;;;;;;;80.95;46.67;;;77.40;2227.20;;;;;;5034314;28;20040;-76
2022/03/19 01:02:07;;;;;;;82.80;46.00;;;77.30;2227.20;;;;;;5035313;28;20112;-75
2022/03/19 01:04:32;;;;;;;77.32;46.17;;;77.20;2227.20;;;;;;5070634;28;20029;-75
2022/03/19 01:06:58;;;;;;;82.05;47.38;;;77.30;2227.20;;;;;;5037975;28;20052;-75
2022/03/19 01:09:24;;;;;;;75.50;45.85;;;77.30;2227.20;;;;;;5046180;28;20029;-75
2022/03/19 01:11:50;;;;;;;73.95;46.13;;;77.30;2227.20;;;;;;5039069;28;20040;-76
2022/03/19 01:14:16;;;;;;;73.68;47.20;;;77.30;2227.20;;;;;;5040559;28;20041;-76
2022/03/19 01:16:42;;;;;;;70.65;44.63;;;77.30;2227.20;;;;;;5041806;28;20032;-76
2022/03/19 01:19:08;;;;;;;69.03;45.47;;;77.30;2227.20;;;;;;5038506;28;20465;-75
2022/03/19 01:21:35;;;;;;;70.97;42.75;;;77.30;2227.20;;;;;;5036513;28;20036;-76
2022/03/19 01:24:02;;;;;;;77.40;42.47;;;77.30;2227.20;;;;;;5040597;28;20033;-75
2022/03/19 01:26:28;;;;;;;73.95;42.30;;;77.20;2227.20;;;;;;5039305;28;20072;-74
2022/03/19 01:28:53;;;;;;;70.00;44.03;;;77.10;2227.20;;;;;;5068959;28;20037;-76
2022/03/19 01:31:21;;;;;;;74.97;45.15;;;77.00;2227.20;;;;;;5041787;28;20080;-76
2022/03/19 01:33:47;;;;;;;75.18;45.17;;;76.90;2227.20;;;;;;5037889;28;20059;-75
2022/03/19 01:36:12;;;;;;;72.68;44.58;;;76.80;2227.20;;;;;;5032342;28;20030;-75
2022/03/19 01:38:38;;;;;;;77.30;47.90;;;76.80;2227.20;;;;;;5031135;28;20041;-75
2022/03/19 01:41:04;;;;;;;71.97;43.90;;;76.80;2227.20;;;;;;5030708;28;20025;-75
2022/03/19 01:43:30;;;;;;;74.82;45.80;;;76.90;2227.20;;;;;;5031259;28;20029;-75
2022/03/19 01:45:55;;;;;;;78.28;45.45;;;76.90;2227.20;;;;;;5031368;28;20022;-76
2022/03/19 01:48:21;;;;;;;76.13;44.90;;;77.00;2227.20;;;;;;5032195;28;20052;-75
2022/03/19 01:50:47;;;;;;;69.47;41.45;;;77.00;2227.20;;;;;;5032074;28;20017;-77
2022/03/19 01:53:12;;;;;;;80.53;47.47;;;77.10;2227.20;;;;;;5030855;28;20482;-77
2022/03/19 01:55:38;;;;;;;74.25;41.28;;;77.00;2227.20;;;;;;5030834;28;20092;-76
2022/03/19 01:58:04;;;;;;;73.88;44.33;;;77.00;2227.20;;;;;;5032058;28;20132;-76
2022/03/19 02:00:30;;;;;;;76.50;45.20;;;77.00;2227.20;;;;;;5030844;28;20112;-76
2022/03/19 02:02:57;;;;;;;76.97;44.50;;;76.80;2227.20;;;;;;5031906;28;20117;-76
2022/03/19 02:05:23;;;;;;;75.28;46.58;;;52.10;2227.20;;;;;;5030643;28;20402;-76
2022/03/19 02:07:50;;;;;;;81.50;47.88;;;52.00;2227.20;;;;;;5030375;28;20056;-76
2022/03/19 02:10:18;;;;;;;85.93;50.45;;;52.00;2227.20;;;;;;5032266;28;20367;-76
2022/03/19 02:12:45;;;;;;;83.30;48.47;;;51.90;2227.20;;;;;;5031851;28;20463;-76
2022/03/19 02:15:12;;;;;;;80.22;45.28;;;51.90;2227.20;;;;;;5032113;28;20033;-76
2022/03/19 02:17:38;;;;;;;70.57;44.60;;;51.80;2227.20;;;;;;5029756;28;20194;-76
2022/03/19 02:20:05;;;;;;;68.38;42.75;;;51.80;2227.20;;;;;;5032284;28;20493;-76
2022/03/19 02:22:31;;;;;;;77.57;42.53;;;51.80;2227.20;;;;;;5030501;28;20037;-76
2022/03/19 02:27:43;;;;;;;81.68;46.35;;;51.70;2227.20;;;;;;5032401;28;20044;-74
2022/03/19 02:30:11;;;;;;;76.18;45.40;;;51.60;2227.20;;;;;;5031728;28;20497;-77
2022/03/19 02:32:49;;;;;;;80.55;44.42;;;51.50;2227.20;;;;;;5030535;28;20138;-77
2022/03/19 02:35:17;;;;;;;73.45;44.00;;;51.50;2227.20;;;;;;5047243;28;20379;-76
2022/03/19 02:37:46;;;;;;;76.97;41.40;;;51.50;2227.20;;;;;;5030376;28;20371;-76
2022/03/19 02:40:15;;;;;;;72.43;38.65;;;51.50;2227.20;;;;;;5030679;28;20029;-77
2022/03/19 02:42:41;;;;;;;63.10;37.65;;;51.40;2227.20;;;;;;5030277;28;20751;-76
2022/03/19 02:45:07;;;;;;;59.75;37.38;;;51.40;2227.20;;;;;;5047335;28;20031;-76
2022/03/19 02:47:34;;;;;;;68.63;40.17;;;51.40;2227.20;;;;;;5031723;28;20048;-76
2022/03/19 02:50:00;;;;;;;74.93;45.25;;;51.40;2227.20;;;;;;5047281;28;20072;-76
2022/03/19 02:52:26;;;;;;;75.25;42.13;;;51.30;2227.20;;;;;;5030060;28;20125;-76
2022/03/19 02:54:52;;;;;;;70.65;40.72;;;51.30;2227.20;;;;;;5036202;28;20037;-76
2022/03/19 02:57:18;;;;;;;69.10;40.17;;;51.40;2227.20;;;;;;5031217;28;20037;-75
2022/03/19 02:59:44;;;;;;;69.20;40.65;;;51.30;2227.20;;;;;;5034449;28;20036;-76
2022/03/19 03:02:09;;;;;;;75.03;42.22;;;51.30;2227.20;;;;;;5035093;28;20075;-75
2022/03/19 03:04:35;;;;;;;68.68;40.55;;;51.30;2227.20;;;;;;5035280;28;20036;-75
2022/03/19 03:07:03;;;;;;;64.82;37.80;;;51.30;2227.20;;;;;;5034220;28;20041;-75
2022/03/19 03:09:30;;;;;;;62.47;39.03;;;51.30;2227.20;;;;;;5034946;28;20036;-76
2022/03/19 03:11:58;;;;;;;68.22;40.33;;;51.30;2227.20;;;;;;5033929;28;20033;-76
2022/03/19 03:14:24;;;;;;;65.47;39.63;;;51.30;2227.20;;;;;;5033758;28;20767;-76
2022/03/19 03:16:52;;;;;;;68.55;40.75;;;51.30;2227.20;;;;;;5035110;28;20029;-76
2022/03/19 03:19:19;;;;;;;71.05;40.38;;;51.30;2227.20;;;;;;5036421;28;20037;-76
2022/03/19 03:21:46;;;;;;;72.55;40.50;;;51.30;2227.20;;;;;;5045249;28;20048;-75
2022/03/19 03:24:14;;;;;;;65.97;40.00;;;51.30;2227.20;;;;;;5050985;28;20029;-76
2022/03/19 03:26:41;;;;;;;66.88;40.05;;;51.30;2227.20;;;;;;5053417;28;20033;-76
2022/03/19 03:29:07;;;;;;;73.13;40.30;;;51.40;2227.20;;;;;;5053842;28;20021;-76
2022/03/19 03:31:33;;;;;;;69.25;40.75;;;51.40;2227.20;;;;;;5052936;28;20132;-76
2022/03/19 03:34:00;;;;;;;73.05;38.70;;;51.40;2227.20;;;;;;5054733;28;20033;-76
2022/03/19 03:36:25;;;;;;;71.00;42.40;;;51.40;2227.20;;;;;;5054398;28;20040;-76
2022/03/19 03:38:51;;;;;;;61.58;39.50;;;51.40;2227.20;;;;;;5053676;28;20370;-77
2022/03/19 03:41:18;;;;;;;62.50;40.17;;;51.40;2227.20;;;;;;5052437;28;20037;-74
2022/03/19 03:43:43;;;;;;;64.95;38.95;;;51.40;2227.20;;;;;;5053434;28;20367;-76
2022/03/19 03:46:09;;;;;;;63.00;38.58;;;51.40;2227.20;;;;;;5053017;28;20078;-76
2022/03/19 03:48:36;;;;;;;62.20;37.58;;;51.40;2227.20;;;;;;5053097;28;20115;-77
2022/03/19 03:51:03;;;;;;;66.05;39.47;;;51.40;2227.20;;;;;;5054565;28;20021;-76
2022/03/19 03:53:29;;;;;;;59.08;37.25;;;51.40;2227.20;;;;;;5053991;28;20029;-76
2022/03/19 03:55:56;;;;;;;64.97;37.80;;;51.40;2227.20;;;;;;5053410;28;20033;-77
2022/03/19 03:58:24;;;;;;;65.38;38.20;;;51.40;2227.20;;;;;;5053652;28;20025;-76
2022/03/19 04:00:53;;;;;;;66.90;39.65;;;51.40;2227.20;;;;;;5052517;28;20159;-76
2022/03/19 04:03:20;;;;;;;64.35;38.85;;;51.30;2227.20;;;;;;5052196;28;20044;-76
2022/03/19 04:05:45;;;;;;;69.70;39.78;;;51.40;2227.20;;;;;;5053086;28;20032;-75
2022/03/19 04:08:11;;;;;;;71.35;41.95;;;51.50;2227.20;;;;;;5053470;28;20036;-75
2022/03/19 04:10:37;;;;;;;78.53;42.95;;;51.40;2227.20;;;;;;5035418;28;20033;-75
2022/03/19 04:13:03;;;;;;;71.93;43.40;;;51.40;2227.20;;;;;;5032275;28;20486;-75
2022/03/19 04:15:29;;;;;;;70.05;41.72;;;51.40;2227.20;;;;;;5032667;28;20025;-75
2022/03/19 04:17:55;;;;;;;74.75;43.05;;;51.30;2227.20;;;;;;5033038;28;20087;-76
2022/03/19 04:20:22;;;;;;;74.57;44.08;;;51.30;2227.20;;;;;;5032949;28;20449;-75
2022/03/19 04:22:48;;;;;;;74.72;42.83;;;51.30;2227.20;;;;;;5034420;28;20083;-75
2022/03/19 04:25:16;;;;;;;72.28;42.42;;;51.30;2227.20;;;;;;5033577;28;20120;-75
2022/03/19 04:27:44;;;;;;;67.50;41.63;;;51.40;2227.20;;;;;;5032818;28;20042;-76
2022/03/19 04:30:12;;;;;;;75.03;43.30;;;51.40;2227.20;;;;;;5033295;28;20017;-76
2022/03/19 04:32:49;;;;;;;73.05;43.83;;;51.40;2227.20;;;;;;5043399;28;20070;-76
2022/03/19 04:38:03;;;;;;;;;;;51.30;2227.20;;;;;;5034331;28;20044;-74
2022/03/19 04:40:29;;;;;;;79.57;43.90;;;51.30;2227.20;;;;;;5032603;28;19909;-76
2022/03/19 04:42:55;;;;;;;85.93;48.25;;;51.20;2227.20;;;;;;5032189;28;20036;-76
2022/03/19 04:45:21;;;;;;;83.28;47.65;;;26.50;2201.60;;;;;;5032103;28;20026;-76
2022/03/19 04:47:47;;;;;;;82.38;50.53;;;26.50;2201.60;;;;;;5049071;28;20057;-76
2022/03/19 04:50:13;;;;;;;84.10;48.25;;;26.30;2201.60;;;;;;5048635;28;20067;-76
2022/03/19 04:52:39;;;;;;;78.88;46.38;;;26.30;2201.60;;;;;;5032274;28;20050;-76
2022/03/19 04:55:10;;;;;;;78.80;43.22;;;26.30;2201.60;;;;;;5031918;28;20041;-76
2022/03/19 04:57:37;;;;;;;83.72;47.40;;;26.30;2201.60;;;;;;5033618;28;20490;-76
2022/03/19 05:00:05;;;;;;;74.03;41.40;;;26.30;2201.60;;;;;;5033073;28;20037;-76
2022/03/19 05:02:31;;;;;;;80.85;48.00;;;26.10;2201.60;;;;;;5031476;28;20044;-75
2022/03/19 05:04:57;;;;;;;76.80;45.53;;;26.00;2201.60;;;;;;5071356;28;20029;-76
2022/03/19 05:07:24;;;;;;;80.88;44.95;;;26.00;2201.60;;;;;;5044639;28;20040;-76
2022/03/19 05:12:40;;;;;;;79.72;44.28;;;26.00;2201.60;;;;;;5033085;28;20561;-77
2022/03/19 05:15:10;;;;;;;80.20;45.40;;;26.10;2201.60;;;;;;5059292;28;20033;-75
2022/03/19 05:17:36;;;;;;;77.15;44.78;;;26.10;2201.60;;;;;;5032702;28;20036;-75
2022/03/19 05:20:03;;;;;;;80.32;44.58;;;26.20;2201.60;;;;;;5064442;28;20037;-75
2022/03/19 05:22:29;;;;;;;78.45;42.55;;;26.20;2201.60;;;;;;5042919;28;20029;-75
2022/03/19 05:24:56;;;;;;;76.32;44.65;;;26.20;2201.60;;;;;;5050746;28;20033;-75
2022/03/19 05:27:22;;;;;;;74.70;46.33;;;26.30;2201.60;;;;;;5051897;28;20032;-76
2022/03/19 05:29:48;;;;;;;79.05;44.40;;;26.30;2201.60;;;;;;5051205;28;20095;-75
2022/03/19 05:32:15;;;;;;;80.55;47.38;;;26.30;2201.60;;;;;;5051304;28;20049;-76
2022/03/19 05:34:41;;;;;;;76.68;45.47;;;26.40;2201.60;;;;;;5051073;28;20037;-75
2022/03/19 05:37:07;;;;;;;76.18;44.97;;;26.50;2201.60;;;;;;5051370;28;20120;-75
2022/03/19 05:39:33;;;;;;;79.22;43.05;;;51.20;2227.20;;;;;;5051885;28;20029;-75
2022/03/19 05:41:59;;;;;;;74.43;45.13;;;51.30;2227.20;;;;;;5043886;28;20056;-75
2022/03/19 05:44:25;;;;;;;77.68;46.80;;;51.40;2227.20;;;;;;5033579;28;20029;-74
2022/03/19 05:46:51;;;;;;;80.47;46.05;;;51.40;2227.20;;;;;;5030899;28;20032;-75
2022/03/19 05:49:17;;;;;;;93.13;51.33;;;51.50;2227.20;;;;;;5035291;28;20030;-75
2022/03/19 05:51:43;;;;;;;91.30;50.78;;;51.50;2227.20;;;;;;5064148;28;20048;-75
2022/03/19 05:54:10;;;;;;;92.13;53.83;;;51.60;2227.20;;;;;;5032440;28;20044;-75
2022/03/19 05:56:37;;;;;;;95.55;52.55;;;51.70;2227.20;;;;;;5041697;28;20033;-75
2022/03/19 05:59:03;;;;;;;85.68;47.97;;;51.80;2227.20;;;;;;5034383;28;20033;-75
2022/03/19 06:01:29;;;;;;;84.82;49.78;;;51.90;2227.20;;;;;;5030882;28;20109;-75
2022/03/19 06:03:57;;;;;;;75.35;46.75;;;51.90;2227.20;;;;;;5031058;28;20839;-75
2022/03/19 06:06:23;;;;;;;79.85;45.17;;;52.10;2227.20;;;;;;5033600;28;20078;-75
2022/03/19 06:08:49;;;;;;;73.50;42.83;;;76.80;2227.20;;;;;;5075778;28;20744;-75
2022/03/19 06:11:15;;;;;;;73.22;42.60;;;76.80;2227.20;;;;;;5051873;28;20080;-75
2022/03/19 06:13:41;;;;;;;74.50;43.70;;;77.00;2227.20;;;;;;5042568;28;20473;-75
2022/03/19 06:16:07;;;;;;;73.63;45.40;;;77.00;2227.20;;;;;;5046242;28;20024;-75
2022/03/19 06:18:33;;;;;;;76.50;49.83;;;77.20;2227.20;;;;;;5042363;28;20027;-75
2022/03/19 06:20:59;;;;;;;78.53;43.03;;;77.30;2227.20;;;;;;5040981;28;20029;-75
2022/03/19 06:23:25;;;;;;;78.00;46.17;;;77.50;2227.20;;;;;;5039196;28;20022;-75
2022/03/19 06:25:51;;;;;;;79.40;44.90;;;77.50;2227.20;;;;;;5048914;28;20104;-75
2022/03/19 06:28:17;;;;;;;72.47;46.50;;;77.70;2227.20;;;;;;5051558;28;20439;-74
2022/03/19 06:30:43;;;;;;;63.38;39.47;;;77.70;2227.20;;;;;;5048552;28;20440;-75
2022/03/19 06:33:11;;;;;;;66.55;43.70;;;102.50;2227.20;;;;;;5046421;28;20446;-75
2022/03/19 06:38:24;;;;;;;73.70;42.95;;;102.70;2227.20;;;;;;5038769;28;20500;-75
2022/03/19 06:40:50;;;;;;;70.78;45.50;;;102.90;2227.20;;;;;;5067586;28;20132;-75
2022/03/19 06:43:16;;;;;;;73.07;45.58;;;103.00;2227.20;;;;;;5036883;28;20116;-76
2022/03/19 06:45:42;;;;;;;73.43;46.40;;;103.10;2227.20;;;;;;5049041;28;20041;-76
2022/03/19 06:48:08;;;;;;;70.85;44.58;;;103.30;2227.20;;;;;;5035966;28;20435;-76
2022/03/19 06:50:34;;;;;;;82.75;49.03;;;128.00;2252.80;;;;;;5054595;28;20031;-76
2022/03/19 06:53:02;;;;;;;78.00;46.40;;;128.10;2252.80;;;;;;5054601;28;20100;-75
2022/03/19 06:55:27;;;;;;;68.70;44.88;;;128.20;2252.80;;;;;;5049675;28;20063;-76
2022/03/19 06:57:53;;;;;;;72.90;44.78;;;128.40;2252.80;;;;;;5050728;28;20069;-75
2022/03/19 07:00:19;;;;;;;66.57;41.70;;;128.40;2252.80;;;;;;5054069;28;20563;-76
2022/03/19 07:02:46;;;;;;;65.20;43.20;;;128.70;2252.80;;;;;;5033459;28;20038;-76
2022/03/19 07:05:12;;;;;;;67.65;41.33;;;128.90;2252.80;;;;;;5049275;28;20099;-76
2022/03/19 07:07:38;;;;;;;63.53;40.58;;;153.70;2252.80;;;;;;5054982;28;20108;-76
2022/03/19 07:10:05;;;;;;;61.38;38.30;;;153.80;2252.80;;;;;;5053498;28;20096;-75
2022/03/19 07:12:30;;;;;;;69.72;44.80;;;154.10;2252.80;;;;;;5053779;28;20020;-75
2022/03/19 07:14:56;;;;;;;94.10;50.38;;;154.20;2252.80;;;;;;5052423;28;20078;-75
2022/03/19 07:17:22;;;;;;;80.13;50.67;;;154.50;2252.80;;;;;;5055088;28;20029;-76
2022/03/19 07:19:47;;;;;;;69.85;43.92;;;179.40;2252.80;;;;;;5045253;28;20052;-76
2022/03/19 07:22:13;;;;;;;73.68;51.72;;;179.50;2252.80;;;;;;5054460;28;20107;-75
2022/03/19 07:24:40;;;;;;;75.35;47.90;;;179.60;2252.80;;;;;;5039587;28;20522;-75
2022/03/19 07:27:06;;;;;;;65.78;44.33;;;179.70;2252.80;;;;;;5046064;28;20026;-76
2022/03/19 07:29:33;;;;;;;80.35;44.58;;;179.90;2252.80;;;;;;5039479;28;20490;-74
2022/03/19 07:31:58;;;;;;;72.15;44.28;;;180.10;2252.80;;;;;;5044444;28;20049;-76
2022/03/19 07:34:24;;;;;;;67.03;44.97;;;205.10;2252.80;;;;;;5044699;28;20025;-74
2022/03/19 07:36:50;;;;;;;67.30;43.10;;;205.20;2252.80;;;;;;5045763;28;20151;-75
2022/03/19 07:39:15;;;;;;;76.03;49.40;;;205.60;2252.80;;;;;;5047716;28;20473;-74
2022/03/19 07:41:48;;;;;;;81.55;47.60;;;205.70;2252.80;;;;;;5043124;28;20071;-75
2022/03/19 07:44:16;;;;;;;75.78;46.97;;;230.70;2252.80;;;;;;5078229;28;20028;-77
2022/03/19 07:46:44;;;;;;;79.60;48.28;;;230.90;2201.60;;;;;;5082707;28;20036;-74
2022/03/19 07:49:11;;;;;;;76.55;47.78;;;231.10;2099.20;;;;;;5048797;28;20028;-75
2022/03/19 07:51:37;;;;;;;84.07;49.50;;;231.20;2048.00;;;;;;5048111;28;20386;-74
2022/03/19 07:54:03;;;;;;;77.35;47.97;;;256.10;1971.20;;;;;;5043284;28;20030;-75
2022/03/19 07:56:29;;;;;;;76.00;47.05;;;256.10;1945.60;;;;;;5044910;28;20091;-74
2022/03/19 07:58:55;;;;;;;72.13;46.60;;;256.50;1920.00;;;;;;5049888;28;20113;-77
2022/03/19 08:01:21;;;;;;;75.40;47.05;;;256.50;1843.20;;;;;;5050511;28;20448;-75
2022/03/19 08:03:47;;;;;;;74.40;44.28;;;256.90;1817.60;;;;;;5051027;28;20029;-74
2022/03/19 08:06:14;;;;;;;79.63;48.42;;;282.20;1766.40;;;;;;5047290;28;20203;-74
2022/03/19 08:08:40;;;;;;;76.40;49.05;;;282.20;1740.80;;;;;;5043156;28;20032;-75
2022/03/19 08:11:07;;;;;;;70.00;48.17;;;282.30;1715.20;;;;;;5044344;28;20462;-75
2022/03/19 08:13:33;;;;;;;70.18;43.53;;;307.30;1715.20;;;;;;5045252;28;20033;-75
2022/03/19 08:15:58;;;;;;;66.57;44.67;;;307.40;1689.60;;;;;;5048354;28;20086;-75
2022/03/19 08:18:24;;;;;;;69.00;45.20;;;307.20;1740.80;;;;;;5046354;28;20028;-75
2022/03/19 08:20:50;;;;;;;65.05;46.17;;;307.20;1689.60;;;;;;5042734;28;20029;-75
2022/03/19 08:23:16;;;;;;;72.18;47.05;;;307.60;1638.40;;;;;;5043203;28;20494;-76
2022/03/19 08:25:42;;;;;;;67.88;44.63;;;308.00;1587.20;;;;;;5041159;28;20163;-75
2022/03/19 08:28:08;;;;;;;58.72;40.60;;;307.90;1587.20;;;;;;5044192;28;20026;-76
2022/03/19 08:30:34;;;;;;;62.63;41.60;;;308.00;1587.20;;;;;;5049036;28;20032;-76
2022/03/19 08:33:01;;;;;;;55.05;35.05;;;332.80;1612.80;;;;;;5047932;28;20043;-77
2022/03/19 08:35:27;;;;;;;55.20;36.38;;;333.30;1561.60;;;;;;5039194;28;20052;-77
2022/03/19 08:40:15;;;;;;;56.05;37.92;;;333.40;1536.00;;;;;;5043420;28;20040;-78
2022/03/19 08:40:39;;;;;;;55.50;36.72;;;333.70;1510.40;;;;;;5043247;28;20111;-75
2022/03/19 08:43:04;;;;;;;49.38;35.80;;;358.50;1484.80;;;;;;5044231;28;20186;-77
2022/03/19 08:45:30;;;;;;;50.50;35.20;;;333.60;1484.80;;;;;;5059769;28;20021;-75
2022/03/19 08:47:56;;;;;;;68.88;38.90;;;358.70;1459.20;;;;;;5043946;28;20021;-76
2022/03/19 08:50:24;;;;;;;65.90;43.40;;;358.90;1433.60;;;;;;5047107;28;20018;-76
2022/03/19 08:52:49;;;;;;;73.22;46.88;;;359.10;1408.00;;;;;;5043100;28;20118;-76
2022/03/19 08:55:15;;;;;;;59.65;41.72;;;359.20;1382.40;;;;;;5038220;28;20576;-76
2022/03/19 08:57:41;;;;;;;58.42;40.30;;;359.10;1382.40;;;;;;5042319;28;20043;-76
2022/03/19 09:00:08;;;;;;;66.88;43.13;;;359.00;1382.40;;;;;;5049838;28;20021;-77
2022/03/19 09:02:37;;;;;;;60.05;40.03;;;384.00;1382.40;;;;;;5038343;28;20037;-76
2022/03/19 09:05:02;;;;;;;48.42;35.28;;;384.20;1331.20;;;;;;5032909;28;20030;-76
2022/03/19 09:07:28;;;;;;;53.13;34.67;;;384.60;1280.00;;;;;;5030246;28;20079;-76
2022/03/19 09:09:54;;;;;;;53.78;35.03;;;384.60;1280.00;;;;;;5031159;28;20092;-76
2022/03/19 09:12:21;;;;;;;49.78;31.85;;;384.90;1254.40;;;;;;5042994;28;20374;-77
2022/03/19 09:14:47;;;;;;;47.53;32.65;;;384.80;1254.40;;;;;;5042470;28;20083;-76
2022/03/19 09:17:13;;;;;;;43.22;31.17;;;409.80;1254.40;;;;;;5041051;28;20033;-76
2022/03/19 09:19:39;;;;;;;44.58;32.30;;;410.30;1228.80;;;;;;5044523;28;20036;-77
2022/03/19 09:22:05;;;;;;;48.58;35.08;;;410.40;1203.20;;;;;;5050701;28;20470;-76
2022/03/19 09:24:31;;;;;;;45.13;32.03;;;410.50;1203.20;;;;;;5048278;28;20036;-76
2022/03/19 09:26:58;;;;;;;44.45;31.95;;;435.30;1203.20;;;;;;5043888;28;20026;-77
2022/03/19 09:29:24;;;;;;;47.38;36.05;;;435.60;1177.60;;;;;;5038197;28;20022;-76
2022/03/19 09:31:51;;;;;;;47.72;31.67;;;435.60;1177.60;;;;;;5042689;28;20037;-77
2022/03/19 09:34:17;;;;;;;42.85;30.23;;;435.90;1152.00;;;;;;5048279;28;20037;-77
2022/03/19 09:36:46;;;;;;;39.55;28.85;;;435.90;1152.00;;;;;;5051089;28;20036;-77
2022/03/19 09:39:14;;;;;;;39.47;26.90;;;436.10;1126.40;;;;;;5040809;28;20052;-77
2022/03/19 09:41:44;;;;;;;35.58;27.05;;;461.10;1126.40;;;;;;5033283;28;20033;-77
2022/03/19 09:44:12;;;;;;;39.83;27.80;;;461.10;1100.80;;;;;;5032592;28;20047;-77
2022/03/19 09:46:38;;;;;;;37.00;25.65;;;461.40;1100.80;;;;;;5030921;28;20478;-77
2022/03/19 09:49:04;;;;;;;38.55;24.92;;;461.50;1100.80;;;;;;5031140;28;20025;-77
2022/03/19 09:51:33;;;;;;;30.33;21.23;;;461.50;1075.20;;;;;;5030610;28;20395;-77
2022/03/19 09:53:59;;;;;;;34.47;26.33;;;461.40;1075.20;;;;;;5042696;28;20082;-77
2022/03/19 09:56:25;;;;;;;32.22;23.33;;;461.50;1075.20;;;;;;5050857;28;20033;-77
2022/03/19 09:58:52;;;;;;;31.83;20.95;;;486.50;1075.20;;;;;;5052012;28;20024;-77
2022/03/19 10:01:18;;;;;;;32.03;23.58;;;486.60;1024.00;;;;;;5052233;28;20474;-78
2022/03/19 10:03:45;;;;;;;25.67;19.63;;;486.80;1024.00;;;;;;5051036;28;20097;-77
2022/03/19 10:08:58;;;;;;;27.88;21.05;;;487.10;998.40;;;;;;5042262;28;20108;-77
2022/03/19 10:11:31;;;;;;;31.10;21.33;;;486.80;998.40;;;;;;5042317;28;20482;-77
2022/03/19 10:13:58;;;;;;;28.48;20.88;;;487.20;998.40;;;;;;5050828;28;20021;-77
2022/03/19 10:16:28;;;;;;;23.13;17.98;;;512.20;972.80;;;;;;5050462;28;20025;-76
2022/03/19 10:18:58;;;;;;;29.60;20.58;;;512.10;972.80;;;;;;5050902;28;20024;-77
2022/03/19 10:21:25;;;;;;;29.50;19.42;;;512.30;972.80;;;;;;5050459;28;20021;-77
2022/03/19 10:23:51;;;;;;;28.02;18.30;;;512.40;947.20;;;;;;5051684;28;20079;-76
2022/03/19 10:26:27;;;;;;;23.83;17.55;;;512.60;921.60;;;;;;5052150;28;20025;-76
2022/03/19 10:29:11;;;;;;;21.95;17.08;;;512.20;947.20;;;;;;5050408;28;20062;-75
2022/03/19 10:31:38;;;;;;;29.40;19.85;;;512.00;947.20;;;;;;5050588;28;20041;-77
2022/03/19 10:34:05;;;;;;;26.77;18.55;;;512.30;947.20;;;;;;5050366;28;20455;-77
2022/03/19 10:36:35;;;;;;;24.63;18.10;;;512.70;921.60;;;;;;5050262;28;20048;-77
2022/03/19 10:39:26;;;;;;;27.77;17.60;;;512.50;947.20;;;;;;5049551;28;20029;-77
2022/03/19 10:41:54;;;;;;;21.55;16.65;;;537.70;947.20;;;;;;5051055;28;20047;-77
2022/03/19 10:44:24;;;;;;;23.10;17.42;;;537.60;921.60;;;;;;5050195;28;20025;-77
2022/03/19 10:47:00;;;;;;;27.58;20.42;;;537.60;921.60;;;;;;5051856;28;20127;-77
2022/03/19 10:49:28;;;;;;;23.92;16.35;;;538.00;921.60;;;;;;5048305;28;20464;-77
2022/03/19 10:51:56;;;;;;;19.48;15.55;;;537.80;921.60;;;;;;5042533;28;20069;-77
2022/03/19 10:54:22;;;;;;;23.63;17.15;;;538.50;896.00;;;;;;5038495;28;20406;-76
2022/03/19 10:56:50;;;;;;;20.98;15.35;;;512.60;921.60;;;;;;5041659;28;20386;-76
2022/03/19 10:59:16;;;;;;;21.42;14.93;;;538.10;896.00;;;;;;5039274;28;20087;-76
2022/03/19 11:01:43;;;;;;;20.40;15.00;;;537.80;921.60;;;;;;5040720;28;20061;-77
2022/03/19 11:04:10;;;;;;;23.08;15.45;;;537.90;896.00;;;;;;5041586;28;20037;-76
2022/03/19 11:06:50;;;;;;;21.40;16.02;;;563.20;896.00;;;;;;5041121;28;20017;-76
2022/03/19 11:09:19;;;;;;;24.13;18.73;;;563.70;870.40;;;;;;5041693;28;20023;-77
2022/03/19 11:12:01;;;;;;;23.90;16.00;;;563.80;870.40;;;;;;5036866;28;20026;-77
2022/03/19 11:14:28;;;;;;;24.00;15.15;;;563.50;896.00;;;;;;5069164;28;20092;-78
2022/03/19 11:17:30;;;;;;;18.20;14.52;;;564.00;870.40;;;;;;5039670;28;20477;-77
2022/03/19 11:20:04;;;;;;;18.52;13.60;;;589.10;844.80;;;;;;5073305;28;20079;-78
2022/03/19 11:22:39;;;;;;;21.05;14.50;;;564.10;870.40;;;;;;5049343;28;20029;-77
2022/03/19 11:25:13;;;;;;;19.85;13.18;;;588.90;844.80;;;;;;5041799;28;20044;-77
2022/03/19 11:27:42;;;;;;;25.15;20.20;;;563.80;870.40;;;;;;5042781;28;20029;-77
2022/03/19 11:30:22;;;;;;;15.20;12.73;;;564.10;870.40;;;;;;5042123;28;20034;-77
2022/03/19 11:33:07;;;;;;;14.32;12.48;;;588.80;870.40;;;;;;5043243;28;20045;-78
2022/03/19 11:35:35;;;;;;;17.98;12.98;;;563.90;870.40;;;;;;5045430;28;20036;-75
2022/03/19 11:38:17;;;;;;;15.52;12.38;;;588.80;844.80;;;;;;5052597;28;20029;-76
2022/03/19 11:40:47;;;;;;;16.75;12.43;;;589.00;819.20;;;;;;5051913;28;20390;-75
2022/03/19 11:43:36;;;;;;;20.90;15.63;;;589.50;793.60;;;;;;5053032;28;20539;-77
2022/03/19 11:46:07;;;;;;;25.65;16.73;;;589.70;793.60;;;;;;5034209;28;20136;-77
2022/03/19 11:48:38;;;;;;;17.38;13.88;;;614.90;768.00;;;;;;5034781;28;20021;-76
2022/03/19 11:51:26;;;;;;;19.15;13.57;;;614.60;793.60;;;;;;5043306;28;20029;-76
2022/03/19 11:53:51;;;;;;;17.08;12.85;;;563.80;844.80;;;;;;5033250;28;20017;-76
2022/03/19 11:56:20;;;;;;;20.55;14.93;;;563.30;819.20;;;;;;5042327;28;20041;-77
2022/03/19 11:58:47;;;;;;;16.55;12.88;;;588.80;793.60;;;;;;5054910;28;20121;-77
2022/03/19 12:01:13;;;;;;;16.73;11.43;;;588.90;793.60;;;;;;5039281;28;20022;-77
2022/03/19 12:04:04;;;;;;;17.48;12.77;;;589.00;793.60;;;;;;5037460;28;20033;-77
2022/03/19 12:06:31;;;;;;;17.10;11.73;;;588.80;793.60;;;;;;5046956;28;20041;-77
2022/03/19 12:08:57;;;;;;;24.20;16.65;;;589.10;768.00;;;;;;5041459;28;20106;-76
2022/03/19 12:11:23;;;;;;;27.75;19.67;;;589.00;768.00;;;;;;5034599;28;20437;-77
2022/03/19 12:13:50;;;;;;;18.45;13.38;;;588.80;793.60;;;;;;5039815;28;20425;-76
2022/03/19 12:16:51;;;;;;;16.25;12.10;;;538.40;793.60;;;;;;5068205;28;20033;-77
2022/03/19 12:19:53;;;;;;;27.23;22.70;;;512.40;793.60;;;;;;5019755;28;20040;-76
2022/03/19 12:22:40;;;;;;;20.85;14.38;;;512.50;819.20;;;;;;5016553;28;20112;-76